Time;durP1;ratioP1;P1;durP2;ratioP2;P2;SDS_P1;SDS_P2;PMS_P1;PMS_P2;Temp;Humidity;BMP_temperature;BMP_pressure;BME280_temperature;BME280_humidity;BME280_pressure;Samples;Min_cycle;Max_cycle;Signal;HPM_P1;HPM_P2
2023/04/21 00:01:38;;;;;;;35.15;18.05;;;;;;;;;;5112754;28;20419;-65
2023/04/21 00:04:04;;;;;;;38.95;17.65;;;;;;;;;;5112703;28;20027;-65
2023/04/21 00:06:31;;;;;;;37.42;17.08;;;;;;;;;;5112840;28;20027;-65
2023/04/21 00:08:57;;;;;;;35.95;16.35;;;;;;;;;;5112389;28;20035;-65
2023/04/21 00:11:23;;;;;;;35.50;16.25;;;;;;;;;;5112700;28;20552;-65
2023/04/21 00:13:49;;;;;;;36.72;16.65;;;;;;;;;;5112490;28;20045;-65
2023/04/21 00:16:15;;;;;;;30.88;15.85;;;;;;;;;;5112402;28;20030;-64
2023/04/21 00:18:42;;;;;;;34.33;16.30;;;;;;;;;;5112343;28;20059;-64
2023/04/21 00:21:08;;;;;;;34.63;15.98;;;;;;;;;;5112417;28;20106;-64
2023/04/21 00:23:34;;;;;;;36.05;16.17;;;;;;;;;;5112457;28;20462;-64
2023/04/21 00:26:01;;;;;;;37.03;17.42;;;;;;;;;;5112110;28;20023;-64
2023/04/21 00:28:28;;;;;;;34.97;16.92;;;;;;;;;;5112225;28;20071;-65
2023/04/21 00:30:54;;;;;;;32.17;16.23;;;;;;;;;;5112188;28;20045;-65
2023/04/21 00:33:20;;;;;;;34.33;15.55;;;;;;;;;;5112317;28;20048;-65
2023/04/21 00:35:46;;;;;;;34.55;16.70;;;;;;;;;;5112124;28;20464;-64
2023/04/21 00:38:12;;;;;;;32.45;15.27;;;;;;;;;;5112057;28;20032;-64
2023/04/21 00:40:38;;;;;;;46.13;16.75;;;;;;;;;;5111931;28;20345;-64
2023/04/21 00:43:07;;;;;;;38.25;15.27;;;;;;;;;;5111982;28;20038;-64
2023/04/21 00:45:34;;;;;;;34.78;15.35;;;;;;;;;;5111887;28;20046;-65
2023/04/21 00:48:00;;;;;;;33.63;16.35;;;;;;;;;;5111962;28;20048;-64
2023/04/21 00:50:26;;;;;;;35.80;15.23;;;;;;;;;;5111944;28;20023;-64
2023/04/21 00:52:53;;;;;;;37.92;16.00;;;;;;;;;;5111899;28;20634;-64
2023/04/21 00:55:19;;;;;;;32.25;15.13;;;;;;;;;;5111816;28;20028;-64
2023/04/21 00:57:45;;;;;;;34.55;15.45;;;;;;;;;;5111712;28;20019;-65
2023/04/21 01:00:11;;;;;;;36.78;16.80;;;;;;;;;;5112076;28;20030;-64
2023/04/21 01:02:40;;;;;;;32.00;16.55;;;;;;;;;;5111816;28;20051;-64
2023/04/21 01:05:07;;;;;;;29.92;15.60;;;;;;;;;;5111637;28;20028;-65
2023/04/21 01:07:34;;;;;;;37.45;16.08;;;;;;;;;;5111707;28;20036;-64
2023/04/21 01:10:00;;;;;;;37.38;17.42;;;;;;;;;;5111662;28;20055;-64
2023/04/21 01:12:26;;;;;;;35.33;15.70;;;;;;;;;;5111727;28;20020;-65
2023/04/21 01:14:52;;;;;;;47.40;16.58;;;;;;;;;;5111712;28;20039;-65
2023/04/21 01:17:18;;;;;;;37.17;16.52;;;;;;;;;;5111802;28;20020;-65
2023/04/21 01:19:45;;;;;;;40.97;16.98;;;;;;;;;;5111398;28;20028;-65
2023/04/21 01:22:12;;;;;;;36.03;16.88;;;;;;;;;;5111488;28;20032;-65
2023/04/21 01:24:42;;;;;;;39.22;15.82;;;;;;;;;;5111497;28;20575;-64
2023/04/21 01:27:11;;;;;;;40.13;16.02;;;;;;;;;;5111401;28;20030;-64
2023/04/21 01:29:38;;;;;;;42.22;16.75;;;;;;;;;;5111254;28;20020;-65
2023/04/21 01:32:09;;;;;;;35.90;15.80;;;;;;;;;;5111353;28;20028;-65
2023/04/21 01:34:35;;;;;;;40.05;16.77;;;;;;;;;;5111572;28;20031;-64
2023/04/21 01:37:01;;;;;;;37.05;17.80;;;;;;;;;;5111394;28;20026;-64
2023/04/21 01:39:27;;;;;;;42.00;16.25;;;;;;;;;;5111390;28;20047;-64
2023/04/21 01:41:56;;;;;;;38.72;16.65;;;;;;;;;;5111195;28;20031;-64
2023/04/21 01:44:22;;;;;;;44.22;17.52;;;;;;;;;;5111896;28;20036;-64
2023/04/21 01:46:48;;;;;;;40.88;17.05;;;;;;;;;;5115212;28;20036;-64
2023/04/21 01:49:14;;;;;;;43.60;18.15;;;;;;;;;;5115354;28;20759;-65
2023/04/21 01:51:41;;;;;;;45.83;17.45;;;;;;;;;;5115523;28;20031;-65
2023/04/21 01:54:07;;;;;;;43.47;18.15;;;;;;;;;;5115326;28;20024;-66
2023/04/21 01:56:33;;;;;;;49.22;18.38;;;;;;;;;;5115530;28;20384;-65
2023/04/21 01:58:59;;;;;;;45.45;18.02;;;;;;;;;;5114777;28;20459;-63
2023/04/21 02:01:25;;;;;;;42.85;18.02;;;;;;;;;;5114965;28;20030;-64
2023/04/21 02:03:51;;;;;;;40.15;18.23;;;;;;;;;;5114698;28;20027;-65
2023/04/21 02:06:17;;;;;;;39.08;17.42;;;;;;;;;;5114900;28;20027;-65
2023/04/21 02:08:43;;;;;;;37.88;17.80;;;;;;;;;;5114826;28;20102;-63
2023/04/21 02:11:09;;;;;;;39.55;17.05;;;;;;;;;;5114668;28;20077;-64
2023/04/21 02:13:35;;;;;;;43.85;18.73;;;;;;;;;;5114724;28;20408;-64
2023/04/21 02:16:02;;;;;;;42.80;17.90;;;;;;;;;;5113435;28;20118;-64
2023/04/21 02:18:28;;;;;;;48.63;19.77;;;;;;;;;;5114661;28;20023;-64
2023/04/21 02:20:55;;;;;;;48.17;19.38;;;;;;;;;;5114663;28;20072;-63
2023/04/21 02:23:21;;;;;;;43.67;18.55;;;;;;;;;;5114457;28;20062;-65
2023/04/21 02:25:47;;;;;;;43.90;17.80;;;;;;;;;;5114623;28;20081;-65
2023/04/21 02:28:13;;;;;;;42.05;18.10;;;;;;;;;;5114396;28;20024;-65
2023/04/21 02:30:39;;;;;;;50.13;18.98;;;;;;;;;;5114223;28;20059;-66
2023/04/21 02:33:05;;;;;;;39.45;18.27;;;;;;;;;;5114428;28;20028;-64
2023/04/21 02:35:32;;;;;;;45.25;19.35;;;;;;;;;;5114353;28;20073;-65
2023/04/21 02:37:58;;;;;;;54.38;19.13;;;;;;;;;;5114082;28;20117;-64
2023/04/21 02:40:25;;;;;;;46.22;18.63;;;;;;;;;;5114086;28;20500;-64
2023/04/21 02:42:51;;;;;;;50.78;19.48;;;;;;;;;;5114240;28;20035;-64
2023/04/21 02:45:17;;;;;;;46.40;18.88;;;;;;;;;;5114033;28;20054;-64
2023/04/21 02:47:43;;;;;;;43.63;19.45;;;;;;;;;;5112546;28;20495;-64
2023/04/21 02:50:09;;;;;;;46.70;19.75;;;;;;;;;;5114080;28;20035;-64
2023/04/21 02:52:39;;;;;;;44.13;19.80;;;;;;;;;;5114160;28;20031;-64
2023/04/21 02:55:05;;;;;;;47.10;19.23;;;;;;;;;;5113979;28;20103;-64
2023/04/21 02:57:31;;;;;;;44.47;19.95;;;;;;;;;;5112746;28;20027;-64
2023/04/21 02:59:57;;;;;;;44.95;18.80;;;;;;;;;;5113825;28;20023;-64
2023/04/21 03:02:23;;;;;;;40.15;19.42;;;;;;;;;;5113658;28;20055;-64
2023/04/21 03:04:50;;;;;;;44.88;19.52;;;;;;;;;;5113710;28;20034;-64
2023/04/21 03:07:16;;;;;;;49.58;20.17;;;;;;;;;;5114168;28;20166;-64
2023/04/21 03:09:42;;;;;;;48.08;20.85;;;;;;;;;;5113637;28;20034;-64
2023/04/21 03:12:08;;;;;;;43.78;19.77;;;;;;;;;;5113637;28;20016;-64
2023/04/21 03:14:34;;;;;;;53.75;21.15;;;;;;;;;;5113578;28;20035;-64
2023/04/21 03:17:00;;;;;;;47.97;19.00;;;;;;;;;;5113508;28;20084;-63
2023/04/21 03:19:26;;;;;;;53.75;21.38;;;;;;;;;;5113356;28;20107;-65
2023/04/21 03:21:52;;;;;;;49.15;20.88;;;;;;;;;;5113346;28;20022;-64
2023/04/21 03:24:18;;;;;;;48.72;21.02;;;;;;;;;;5113395;28;20056;-64
2023/04/21 03:26:45;;;;;;;55.78;20.55;;;;;;;;;;5113000;28;20054;-63
2023/04/21 03:29:11;;;;;;;51.22;20.77;;;;;;;;;;5113226;28;20361;-64
2023/04/21 03:31:37;;;;;;;53.25;21.77;;;;;;;;;;5113162;28;20097;-64
2023/04/21 03:34:03;;;;;;;49.78;20.23;;;;;;;;;;5113033;28;20097;-64
2023/04/21 03:36:30;;;;;;;53.33;22.42;;;;;;;;;;5113041;28;20057;-63
2023/04/21 03:38:57;;;;;;;56.88;21.27;;;;;;;;;;5113340;28;20139;-64
2023/04/21 03:41:23;;;;;;;63.90;23.98;;;;;;;;;;5112950;27;20107;-64
2023/04/21 03:43:52;;;;;;;62.25;22.55;;;;;;;;;;5113091;28;20387;-64
2023/04/21 03:46:21;;;;;;;61.22;23.38;;;;;;;;;;5112654;28;20044;-64
2023/04/21 03:48:48;;;;;;;54.75;22.17;;;;;;;;;;5112924;28;20038;-64
2023/04/21 03:51:14;;;;;;;54.85;22.75;;;;;;;;;;5113210;28;20039;-64
2023/04/21 03:53:40;;;;;;;61.63;22.52;;;;;;;;;;5111693;28;20076;-64
2023/04/21 03:56:07;;;;;;;75.00;22.35;;;;;;;;;;5112841;28;20051;-64
2023/04/21 03:58:33;;;;;;;58.00;21.55;;;;;;;;;;5112867;28;20052;-63
2023/04/21 04:00:59;;;;;;;55.08;21.73;;;;;;;;;;5112678;28;20492;-65
2023/04/21 04:03:25;;;;;;;59.78;22.98;;;;;;;;;;5112860;28;20024;-64
2023/04/21 04:05:51;;;;;;;61.05;23.38;;;;;;;;;;5112477;28;20507;-64
2023/04/21 04:08:17;;;;;;;61.13;24.20;;;;;;;;;;5112371;28;20407;-65
2023/04/21 04:10:43;;;;;;;64.97;23.60;;;;;;;;;;5112566;28;20054;-64
2023/04/21 04:13:09;;;;;;;62.30;24.08;;;;;;;;;;5112665;28;20016;-65
2023/04/21 04:15:35;;;;;;;60.72;25.00;;;;;;;;;;5112838;28;20023;-63
2023/04/21 04:18:01;;;;;;;66.90;26.00;;;;;;;;;;5112376;28;20053;-63
2023/04/21 04:20:28;;;;;;;60.65;25.48;;;;;;;;;;5112446;28;20023;-63
2023/04/21 04:22:54;;;;;;;68.95;26.05;;;;;;;;;;5112219;28;20035;-64
2023/04/21 04:25:20;;;;;;;68.18;25.67;;;;;;;;;;5112306;28;20036;-64
2023/04/21 04:27:48;;;;;;;65.43;25.77;;;;;;;;;;5112213;28;20024;-64
2023/04/21 04:30:14;;;;;;;59.63;25.20;;;;;;;;;;5112011;28;20019;-64
2023/04/21 04:32:40;;;;;;;67.93;25.67;;;;;;;;;;5112429;28;20019;-64
2023/04/21 04:35:07;;;;;;;70.22;25.38;;;;;;;;;;5112049;28;20077;-63
2023/04/21 04:37:34;;;;;;;70.15;27.88;;;;;;;;;;5112073;28;20028;-64
2023/04/21 04:40:00;;;;;;;66.03;26.05;;;;;;;;;;5112104;28;20483;-64
2023/04/21 04:42:26;;;;;;;74.00;26.15;;;;;;;;;;5112048;28;20404;-64
2023/04/21 04:44:56;;;;;;;74.55;27.00;;;;;;;;;;5111797;28;20036;-64
2023/04/21 04:47:22;;;;;;;63.90;26.65;;;;;;;;;;5111514;28;20156;-64
2023/04/21 04:49:48;;;;;;;61.75;24.45;;;;;;;;;;5111651;28;20016;-62
2023/04/21 04:52:14;;;;;;;72.90;27.35;;;;;;;;;;5110171;28;20040;-63
2023/04/21 04:54:40;;;;;;;69.72;27.45;;;;;;;;;;5111335;28;20048;-63
2023/04/21 04:57:06;;;;;;;61.72;25.00;;;;;;;;;;5110035;28;20380;-64
2023/04/21 04:59:32;;;;;;;71.88;26.65;;;;;;;;;;5111078;28;20031;-62
2023/04/21 05:01:58;;;;;;;70.40;26.27;;;;;;;;;;5111276;28;20053;-65
2023/04/21 05:04:24;;;;;;;68.60;28.38;;;;;;;;;;5111359;28;20484;-64
2023/04/21 05:06:51;;;;;;;65.07;26.75;;;;;;;;;;5111632;28;20065;-64
2023/04/21 05:09:17;;;;;;;75.28;28.52;;;;;;;;;;5111632;28;20024;-65
2023/04/21 05:11:43;;;;;;;67.28;26.70;;;;;;;;;;5111533;28;20034;-64
2023/04/21 05:14:09;;;;;;;70.45;26.40;;;;;;;;;;5111484;28;20043;-64
2023/04/21 05:16:35;;;;;;;71.03;27.80;;;;;;;;;;5111609;28;20057;-62
2023/04/21 05:19:01;;;;;;;69.18;28.27;;;;;;;;;;5110923;28;20023;-63
2023/04/21 05:21:28;;;;;;;72.60;28.45;;;;;;;;;;5111254;28;20598;-63
2023/04/21 05:23:58;;;;;;;63.33;25.50;;;;;;;;;;5111461;28;20070;-63
2023/04/21 05:26:26;;;;;;;73.82;29.30;;;;;;;;;;5111635;28;20054;-63
2023/04/21 05:28:52;;;;;;;75.85;27.75;;;;;;;;;;5111288;28;20036;-64
2023/04/21 05:31:18;;;;;;;77.85;28.15;;;;;;;;;;5111665;28;20028;-63
2023/04/21 05:33:44;;;;;;;75.88;28.95;;;;;;;;;;5111500;28;20068;-63
2023/04/21 05:36:10;;;;;;;80.30;28.40;;;;;;;;;;5111477;28;20306;-65
2023/04/21 05:38:37;;;;;;;76.70;28.52;;;;;;;;;;5111512;28;20475;-66
2023/04/21 05:41:04;;;;;;;81.32;29.92;;;;;;;;;;5111219;28;20027;-67
2023/04/21 05:43:33;;;;;;;77.97;29.30;;;;;;;;;;5111567;28;20028;-67
2023/04/21 05:45:59;;;;;;;79.57;29.63;;;;;;;;;;5110899;28;20133;-65
2023/04/21 05:48:25;;;;;;;78.75;29.00;;;;;;;;;;5111329;28;20038;-66
2023/04/21 05:50:52;;;;;;;74.97;28.13;;;;;;;;;;5111284;28;20581;-66
2023/04/21 05:53:18;;;;;;;76.80;27.65;;;;;;;;;;5109075;28;20050;-66
2023/04/21 05:55:44;;;;;;;75.47;28.35;;;;;;;;;;5119885;28;20483;-66
2023/04/21 05:58:10;;;;;;;81.20;30.30;;;;;;;;;;5127522;28;20018;-66
2023/04/21 06:00:36;;;;;;;77.65;28.58;;;;;;;;;;5106491;28;20032;-67
2023/04/21 06:03:02;;;;;;;64.45;28.00;;;;;;;;;;5108328;28;20063;-66
2023/04/21 06:05:28;;;;;;;69.28;27.98;;;;;;;;;;5099690;28;20036;-67
2023/04/21 06:07:54;;;;;;;76.60;30.27;;;;;;;;;;5101927;28;20027;-67
2023/04/21 06:10:20;;;;;;;78.70;29.25;;;;;;;;;;5109945;28;20015;-65
2023/04/21 06:12:46;;;;;;;68.88;28.75;;;;;;;;;;5090648;28;20476;-65
2023/04/21 06:15:12;;;;;;;76.63;28.55;;;;;;;;;;5090802;28;20047;-65
2023/04/21 06:17:38;;;;;;;80.18;30.45;;;;;;;;;;5090573;28;20060;-65
2023/04/21 06:20:05;;;;;;;72.45;29.60;;;;;;;;;;5090728;28;20077;-65
2023/04/21 06:22:31;;;;;;;76.13;29.08;;;;;;;;;;5093853;28;20024;-67
2023/04/21 06:24:57;;;;;;;74.13;29.08;;;;;;;;;;5090600;28;20040;-66
2023/04/21 06:27:23;;;;;;;79.90;29.00;;;;;;;;;;5090908;28;20028;-67
2023/04/21 06:29:54;;;;;;;70.88;28.08;;;;;;;;;;5090430;28;20035;-67
2023/04/21 06:32:20;;;;;;;78.97;31.33;;;;;;;;;;5093809;28;20016;-68
2023/04/21 06:34:46;;;;;;;88.60;29.20;;;;;;;;;;5094210;28;20144;-67
2023/04/21 06:37:12;;;;;;;79.07;27.77;;;;;;;;;;5097080;28;20020;-65
2023/04/21 06:39:38;;;;;;;77.10;28.75;;;;;;;;;;5106922;28;20114;-67
2023/04/21 06:42:04;;;;;;;80.20;30.45;;;;;;;;;;5097278;28;20055;-65
2023/04/21 06:44:31;;;;;;;78.80;28.00;;;;;;;;;;5108936;28;20028;-66
2023/04/21 06:46:57;;;;;;;76.38;29.48;;;;;;;;;;5105330;28;20043;-66
2023/04/21 06:49:23;;;;;;;74.28;28.10;;;;;;;;;;5107716;28;20362;-66
2023/04/21 06:51:49;;;;;;;71.97;27.95;;;;;;;;;;5110149;28;20024;-65
2023/04/21 06:54:15;;;;;;;78.75;27.85;;;;;;;;;;5102767;28;20430;-67
2023/04/21 06:56:41;;;;;;;71.80;29.33;;;;;;;;;;5098160;28;20081;-66
2023/04/21 06:59:08;;;;;;;71.05;28.45;;;;;;;;;;5094326;28;20027;-68
2023/04/21 07:01:34;;;;;;;74.55;29.65;;;;;;;;;;5113774;28;20063;-66
2023/04/21 07:04:00;;;;;;;77.35;29.15;;;;;;;;;;5102670;28;20074;-68
2023/04/21 07:06:26;;;;;;;70.40;29.25;;;;;;;;;;5093561;28;20119;-67
2023/04/21 07:08:53;;;;;;;83.88;28.80;;;;;;;;;;5104390;28;20027;-67
2023/04/21 07:11:19;;;;;;;73.97;29.13;;;;;;;;;;5113536;28;20027;-66
2023/04/21 07:13:45;;;;;;;79.72;29.80;;;;;;;;;;5113702;28;20020;-66
2023/04/21 07:16:11;;;;;;;65.93;28.73;;;;;;;;;;5109392;28;20057;-67
2023/04/21 07:18:39;;;;;;;66.50;28.88;;;;;;;;;;5112235;28;20015;-67
2023/04/21 07:21:05;;;;;;;67.75;28.10;;;;;;;;;;5113791;28;20424;-67
2023/04/21 07:23:31;;;;;;;84.90;35.42;;;;;;;;;;5113462;28;20020;-67
2023/04/21 07:25:57;;;;;;;82.60;29.45;;;;;;;;;;5113158;28;20075;-68
2023/04/21 07:28:23;;;;;;;77.03;29.52;;;;;;;;;;5113234;28;20020;-67
2023/04/21 07:30:49;;;;;;;72.72;27.35;;;;;;;;;;5113124;28;20047;-67
2023/04/21 07:33:15;;;;;;;69.47;26.48;;;;;;;;;;5112981;28;20148;-67
2023/04/21 07:35:41;;;;;;;65.85;26.88;;;;;;;;;;5113383;28;20047;-67
2023/04/21 07:38:07;;;;;;;76.20;27.77;;;;;;;;;;5112088;28;20043;-67
2023/04/21 07:40:33;;;;;;;66.78;27.00;;;;;;;;;;5113442;28;20398;-66
2023/04/21 07:42:59;;;;;;;65.93;26.48;;;;;;;;;;5112927;28;20523;-66
2023/04/21 07:45:25;;;;;;;53.08;24.58;;;;;;;;;;5112816;28;20039;-67
2023/04/21 07:47:51;;;;;;;63.13;26.45;;;;;;;;;;5112793;28;20138;-67
2023/04/21 07:50:18;;;;;;;58.88;25.23;;;;;;;;;;5112907;28;20027;-67
2023/04/21 07:52:44;;;;;;;62.55;23.90;;;;;;;;;;5113106;28;20020;-66
2023/04/21 07:55:11;;;;;;;61.38;24.75;;;;;;;;;;5111648;28;20054;-66
2023/04/21 07:57:38;;;;;;;42.50;21.30;;;;;;;;;;5112678;28;20034;-67
2023/04/21 08:00:05;;;;;;;40.05;19.17;;;;;;;;;;5112887;28;20053;-67
2023/04/21 08:02:31;;;;;;;32.65;17.45;;;;;;;;;;5112676;28;20455;-68
2023/04/21 08:04:57;;;;;;;31.00;16.65;;;;;;;;;;5112468;28;20585;-68
2023/04/21 08:07:23;;;;;;;25.80;14.40;;;;;;;;;;5112752;28;20051;-67
2023/04/21 08:09:49;;;;;;;24.58;13.90;;;;;;;;;;5111163;28;20024;-67
2023/04/21 08:12:15;;;;;;;18.17;11.63;;;;;;;;;;5112888;28;20517;-66
2023/04/21 08:14:41;;;;;;;17.55;10.55;;;;;;;;;;5112934;28;20322;-67
2023/04/21 08:17:07;;;;;;;17.45;10.88;;;;;;;;;;5112648;28;20250;-66
2023/04/21 08:19:33;;;;;;;19.83;10.65;;;;;;;;;;5112873;28;20146;-66
2023/04/21 08:21:59;;;;;;;17.63;10.75;;;;;;;;;;5112320;28;20038;-67
2023/04/21 08:24:26;;;;;;;17.25;10.00;;;;;;;;;;5111111;28;20392;-66
2023/04/21 08:26:52;;;;;;;15.13;8.90;;;;;;;;;;5111130;28;20026;-67
2023/04/21 08:29:18;;;;;;;12.70;9.00;;;;;;;;;;5112369;28;20265;-66
2023/04/21 08:31:44;;;;;;;12.45;7.18;;;;;;;;;;5112211;28;20023;-67
2023/04/21 08:34:10;;;;;;;11.30;7.80;;;;;;;;;;5112004;28;20098;-67
2023/04/21 08:36:36;;;;;;;12.13;7.57;;;;;;;;;;5112311;28;20107;-66
2023/04/21 08:39:02;;;;;;;11.20;7.35;;;;;;;;;;5112312;28;20023;-66
2023/04/21 08:41:28;;;;;;;11.45;7.35;;;;;;;;;;5112125;28;20468;-67
2023/04/21 08:43:55;;;;;;;14.52;7.80;;;;;;;;;;5110680;28;20031;-67
2023/04/21 08:46:21;;;;;;;12.85;7.50;;;;;;;;;;5111866;28;20127;-67
2023/04/21 08:48:47;;;;;;;10.27;7.03;;;;;;;;;;5111930;28;20036;-67
2023/04/21 08:51:15;;;;;;;12.07;7.75;;;;;;;;;;5112207;28;20430;-67
2023/04/21 08:53:42;;;;;;;11.90;7.03;;;;;;;;;;5111570;28;20020;-67
2023/04/21 08:56:08;;;;;;;10.68;7.38;;;;;;;;;;5111435;28;20051;-66
2023/04/21 08:58:34;;;;;;;12.10;7.88;;;;;;;;;;5111832;28;20419;-66
2023/04/21 09:01:00;;;;;;;11.02;7.25;;;;;;;;;;5111658;28;20493;-67
2023/04/21 09:03:27;;;;;;;9.40;7.03;;;;;;;;;;5111861;28;20114;-67
2023/04/21 09:06:04;;;;;;;9.65;7.05;;;;;;;;;;5111864;28;20063;-67
2023/04/21 09:08:31;;;;;;;12.80;7.22;;;;;;;;;;5110496;28;20061;-67
2023/04/21 09:10:58;;;;;;;11.73;6.68;;;;;;;;;;5111569;28;20027;-66
2023/04/21 09:13:37;;;;;;;11.20;7.18;;;;;;;;;;5111749;28;20039;-67
2023/04/21 09:16:04;;;;;;;9.43;6.72;;;;;;;;;;5111557;28;20470;-67
2023/04/21 09:18:35;;;;;;;8.57;6.32;;;;;;;;;;5111974;28;20035;-67
2023/04/21 09:21:06;;;;;;;9.90;6.43;;;;;;;;;;5111466;28;20045;-67
2023/04/21 09:23:38;;;;;;;9.65;6.60;;;;;;;;;;5111699;28;20050;-67
2023/04/21 09:26:05;;;;;;;10.27;6.03;;;;;;;;;;5111387;28;20118;-67
2023/04/21 09:28:31;;;;;;;10.50;6.15;;;;;;;;;;5111353;28;20027;-67
2023/04/21 09:30:58;;;;;;;8.65;6.13;;;;;;;;;;5111566;28;20106;-66
2023/04/21 09:33:24;;;;;;;8.02;6.03;;;;;;;;;;5111539;28;20099;-68
2023/04/21 09:35:52;;;;;;;8.23;5.78;;;;;;;;;;5110260;28;20016;-67
2023/04/21 09:38:21;;;;;;;8.35;5.43;;;;;;;;;;5111472;28;20125;-66
2023/04/21 09:40:56;;;;;;;7.85;5.20;;;;;;;;;;5111061;28;20057;-67
2023/04/21 09:43:22;;;;;;;7.85;5.55;;;;;;;;;;5111400;28;20039;-67
2023/04/21 09:45:48;;;;;;;8.82;5.53;;;;;;;;;;5111213;28;20128;-66
2023/04/21 09:48:16;;;;;;;9.48;5.75;;;;;;;;;;5111271;28;20181;-66
2023/04/21 09:50:42;;;;;;;8.52;6.10;;;;;;;;;;5110154;28;20035;-66
2023/04/21 09:53:12;;;;;;;8.57;5.50;;;;;;;;;;5111298;28;20501;-67
2023/04/21 09:55:38;;;;;;;8.32;5.63;;;;;;;;;;5111249;28;20019;-68
2023/04/21 09:58:05;;;;;;;9.63;6.72;;;;;;;;;;5111400;28;20012;-67
2023/04/21 10:00:31;;;;;;;9.55;5.82;;;;;;;;;;5111163;28;20019;-68
2023/04/21 10:02:58;;;;;;;8.40;5.57;;;;;;;;;;5111155;28;20098;-67
2023/04/21 10:05:24;;;;;;;11.15;6.22;;;;;;;;;;5111576;28;20154;-67
2023/04/21 10:07:50;;;;;;;7.90;5.65;;;;;;;;;;5114881;28;20020;-67
2023/04/21 10:10:18;;;;;;;7.80;5.65;;;;;;;;;;5115205;28;20059;-66
2023/04/21 10:12:44;;;;;;;8.90;6.40;;;;;;;;;;5114888;28;20177;-65
2023/04/21 10:15:28;;;;;;;8.80;5.85;;;;;;;;;;5115065;28;20032;-66
2023/04/21 10:18:10;;;;;;;7.13;5.18;;;;;;;;;;5111223;28;20030;-66
2023/04/21 10:20:50;;;;;;;8.88;5.45;;;;;;;;;;5112554;28;20028;-66
2023/04/21 10:23:29;;;;;;;7.55;5.38;;;;;;;;;;5114804;28;20506;-67
2023/04/21 10:26:25;;;;;;;8.32;5.65;;;;;;;;;;5114515;28;20032;-66
2023/04/21 10:29:06;;;;;;;8.43;6.05;;;;;;;;;;5105446;28;20039;-67
2023/04/21 10:31:32;;;;;;;9.27;5.90;;;;;;;;;;5114814;28;20124;-66
2023/04/21 10:34:01;;;;;;;8.77;6.00;;;;;;;;;;5114790;28;20027;-66
2023/04/21 10:36:27;;;;;;;7.82;5.47;;;;;;;;;;5113295;28;20069;-66
2023/04/21 10:38:57;;;;;;;7.30;5.75;;;;;;;;;;5114406;28;20031;-65
2023/04/21 10:41:27;;;;;;;8.27;5.38;;;;;;;;;;5114312;28;20118;-67
2023/04/21 10:43:53;;;;;;;7.93;5.95;;;;;;;;;;5114281;28;20015;-66
2023/04/21 10:46:38;;;;;;;7.75;5.55;;;;;;;;;;5114279;28;20097;-66
2023/04/21 10:49:11;;;;;;;7.35;5.20;;;;;;;;;;5114411;28;20028;-66
2023/04/21 10:52:06;;;;;;;7.63;5.53;;;;;;;;;;5113934;28;20542;-66
2023/04/21 10:54:35;;;;;;;9.13;5.32;;;;;;;;;;5109142;28;20042;-66
2023/04/21 10:57:01;;;;;;;8.02;5.43;;;;;;;;;;5114095;28;20016;-66
2023/04/21 10:59:28;;;;;;;7.32;5.45;;;;;;;;;;5114188;28;20019;-65
2023/04/21 11:01:54;;;;;;;8.13;5.53;;;;;;;;;;5113792;28;20123;-67
2023/04/21 11:04:21;;;;;;;7.57;5.63;;;;;;;;;;5096939;28;20115;-67
2023/04/21 11:07:06;;;;;;;13.52;6.20;;;;;;;;;;5093682;28;20069;-66
2023/04/21 11:09:32;;;;;;;6.72;5.13;;;;;;;;;;5093503;28;20110;-66
2023/04/21 11:12:01;;;;;;;6.75;4.97;;;;;;;;;;5094024;28;20020;-66
2023/04/21 11:14:27;;;;;;;6.70;4.97;;;;;;;;;;5093437;28;20069;-65
2023/04/21 11:16:53;;;;;;;7.43;5.18;;;;;;;;;;5092855;28;20020;-67
2023/04/21 11:19:23;;;;;;;6.43;5.05;;;;;;;;;;5093123;28;20026;-66
2023/04/21 11:21:49;;;;;;;6.93;5.00;;;;;;;;;;5093413;28;20025;-67
2023/04/21 11:24:15;;;;;;;6.82;5.25;;;;;;;;;;5093036;28;20040;-66
2023/04/21 11:26:41;;;;;;;5.90;4.80;;;;;;;;;;5092986;28;20024;-66
2023/04/21 11:29:09;;;;;;;5.72;4.53;;;;;;;;;;5092860;28;20122;-66
2023/04/21 11:31:36;;;;;;;7.10;4.68;;;;;;;;;;5093073;28;20478;-66
2023/04/21 11:34:05;;;;;;;5.95;4.80;;;;;;;;;;5091340;28;20020;-67
2023/04/21 11:36:35;;;;;;;8.65;5.45;;;;;;;;;;5092915;28;20012;-67
2023/04/21 11:39:08;;;;;;;5.70;4.70;;;;;;;;;;5092849;28;20040;-67
2023/04/21 11:41:35;;;;;;;5.63;4.70;;;;;;;;;;5092742;28;20031;-66
2023/04/21 11:44:01;;;;;;;8.07;4.45;;;;;;;;;;5092815;28;20028;-66
2023/04/21 11:46:28;;;;;;;6.25;4.63;;;;;;;;;;5092624;28;20048;-66
2023/04/21 11:48:57;;;;;;;5.50;4.15;;;;;;;;;;5092673;28;20020;-66
2023/04/21 11:51:23;;;;;;;5.93;4.10;;;;;;;;;;5109650;28;20042;-67
2023/04/21 11:53:50;;;;;;;4.22;3.83;;;;;;;;;;5112903;28;20231;-66
2023/04/21 11:56:22;;;;;;;4.32;3.80;;;;;;;;;;5112877;28;20069;-67
2023/04/21 11:58:51;;;;;;;4.88;3.55;;;;;;;;;;5112866;28;20099;-67
2023/04/21 12:01:18;;;;;;;6.45;4.20;;;;;;;;;;5112815;28;20376;-67
2023/04/21 12:03:54;;;;;;;5.47;4.15;;;;;;;;;;5112830;28;20097;-67
2023/04/21 12:06:23;;;;;;;6.03;3.67;;;;;;;;;;5111556;28;20169;-66
2023/04/21 12:08:55;;;;;;;4.30;3.30;;;;;;;;;;5112765;28;20099;-67
2023/04/21 12:11:21;;;;;;;;;;;;;;;;;;5113344;28;20035;-68
2023/04/21 12:13:47;;;;;;;4.50;3.72;;;;;;;;;;5112782;28;20292;-65
2023/04/21 12:16:13;;;;;;;5.13;3.80;;;;;;;;;;5112581;28;20027;-66
2023/04/21 12:18:39;;;;;;;4.50;3.58;;;;;;;;;;5110923;28;20077;-67
2023/04/21 12:21:05;;;;;;;4.30;3.90;;;;;;;;;;5111069;27;20034;-66
2023/04/21 12:23:31;;;;;;;5.38;4.05;;;;;;;;;;5112689;28;20016;-66
2023/04/21 12:25:57;;;;;;;4.95;4.45;;;;;;;;;;5112428;28;20557;-67
2023/04/21 12:28:23;;;;;;;4.70;4.20;;;;;;;;;;5111948;28;20081;-66
2023/04/21 12:30:49;;;;;;;5.45;4.00;;;;;;;;;;5112373;28;20034;-67
2023/04/21 12:33:15;;;;;;;5.05;3.72;;;;;;;;;;5112430;28;20035;-67
2023/04/21 12:35:41;;;;;;;5.63;3.90;;;;;;;;;;5110836;28;20072;-67
2023/04/21 12:38:08;;;;;;;4.43;4.03;;;;;;;;;;5111072;28;20114;-67
2023/04/21 12:40:34;;;;;;;4.35;3.95;;;;;;;;;;5112433;28;20027;-66
2023/04/21 12:43:00;;;;;;;3.78;3.38;;;;;;;;;;5112169;28;20024;-68
2023/04/21 12:45:26;;;;;;;4.35;3.60;;;;;;;;;;5112012;28;20066;-67
2023/04/21 12:47:53;;;;;;;4.13;3.70;;;;;;;;;;5111757;28;20040;-67
2023/04/21 12:50:19;;;;;;;4.13;3.67;;;;;;;;;;5111825;28;20015;-67
2023/04/21 12:52:45;;;;;;;5.63;4.38;;;;;;;;;;5111876;28;20043;-67
2023/04/21 12:55:12;;;;;;;6.35;4.45;;;;;;;;;;5110592;28;20035;-67
2023/04/21 12:57:38;;;;;;;5.45;4.20;;;;;;;;;;5111796;28;20020;-66
2023/04/21 13:00:07;;;;;;;5.68;5.03;;;;;;;;;;5111758;28;20115;-67
2023/04/21 13:02:35;;;;;;;7.45;5.72;;;;;;;;;;5111731;28;20023;-67
2023/04/21 13:05:03;;;;;;;5.70;5.10;;;;;;;;;;5111628;28;20472;-66
2023/04/21 13:07:30;;;;;;;6.57;5.35;;;;;;;;;;5111368;28;20032;-67
2023/04/21 13:09:56;;;;;;;6.45;5.38;;;;;;;;;;5110292;28;20328;-66
2023/04/21 13:12:22;;;;;;;8.73;7.82;;;;;;;;;;5111647;28;20058;-67
2023/04/21 13:14:49;;;;;;;8.15;6.60;;;;;;;;;;5111735;28;20052;-66
2023/04/21 13:17:15;;;;;;;9.00;6.75;;;;;;;;;;5111602;28;20028;-65
2023/04/21 13:19:41;;;;;;;8.15;7.00;;;;;;;;;;5111572;28;20129;-69
2023/04/21 13:22:07;;;;;;;7.60;6.80;;;;;;;;;;5111423;28;20383;-66
2023/04/21 13:24:33;;;;;;;10.70;8.98;;;;;;;;;;5111417;28;20488;-67
2023/04/21 13:27:03;;;;;;;11.35;10.15;;;;;;;;;;5110282;28;20107;-67
2023/04/21 13:29:32;;;;;;;8.95;7.47;;;;;;;;;;5111192;28;20072;-68
2023/04/21 13:31:59;;;;;;;8.85;7.57;;;;;;;;;;5110174;28;20030;-67
2023/04/21 13:34:25;;;;;;;7.45;6.22;;;;;;;;;;5111463;28;20024;-66
2023/04/21 13:36:51;;;;;;;6.70;6.00;;;;;;;;;;5111406;28;20436;-66
2023/04/21 13:39:17;;;;;;;7.03;5.97;;;;;;;;;;5111542;28;20023;-67
2023/04/21 13:41:43;;;;;;;6.05;5.45;;;;;;;;;;5113833;28;20464;-67
2023/04/21 13:44:09;;;;;;;5.93;5.32;;;;;;;;;;5114300;28;20030;-65
2023/04/21 13:46:35;;;;;;;5.32;4.82;;;;;;;;;;5115399;28;20562;-66
2023/04/21 13:49:01;;;;;;;7.28;6.43;;;;;;;;;;5115549;28;20020;-65
2023/04/21 13:51:29;;;;;;;7.13;6.43;;;;;;;;;;5115478;28;20023;-66
2023/04/21 13:53:55;;;;;;;9.57;7.78;;;;;;;;;;5115200;28;20012;-66
2023/04/21 13:56:21;;;;;;;9.05;7.82;;;;;;;;;;5115245;28;20589;-66
2023/04/21 13:58:47;;;;;;;9.52;8.63;;;;;;;;;;5114675;28;20437;-65
2023/04/21 14:01:13;;;;;;;7.25;6.55;;;;;;;;;;5113428;28;20491;-67
2023/04/21 14:03:40;;;;;;;6.97;6.28;;;;;;;;;;5115279;28;20073;-65
2023/04/21 14:06:06;;;;;;;7.57;6.20;;;;;;;;;;5115030;28;20032;-67
2023/04/21 14:08:32;;;;;;;6.43;5.80;;;;;;;;;;5115183;28;20027;-65
2023/04/21 14:10:58;;;;;;;7.18;5.55;;;;;;;;;;5114964;28;20076;-66
2023/04/21 14:13:29;;;;;;;6.07;5.15;;;;;;;;;;5114969;28;20153;-65
2023/04/21 14:15:55;;;;;;;8.07;5.05;;;;;;;;;;5114852;28;20051;-65
2023/04/21 14:18:22;;;;;;;5.80;5.20;;;;;;;;;;5112573;28;20304;-65
2023/04/21 14:20:48;;;;;;;6.50;5.32;;;;;;;;;;5115029;28;20034;-65
2023/04/21 14:23:14;;;;;;;6.57;5.40;;;;;;;;;;5114983;28;20024;-65
2023/04/21 14:25:40;;;;;;;5.63;5.03;;;;;;;;;;5114853;28;20040;-66